Верхняя Хава

Карта отелей и гостиниц, располагающихся рядом с аэропортом Верхняя Хава :

Верхняя Хава Воронежская область 51° 50' 11.58" N, 39° 53' 48.48" E
Верхняя Хава Воронежская область 51° 50' 11.58" N, 39° 53' 48.48" E
Код аэродрома ИКАО
ZCU0
Код аэродрома RU
ЗЦУ0
Координаты
N51.83655° E039.89680°
Превышение над уровнем моря
165
Основная полоса
09/27
Курс магнитный
094,3/274,3
Длина основной ВПП
400
Ширина основной ВПП
18
Покрытие основной ВПП
Твёрдое (асфальт)
Освещение ВПП
Нет
Тип: 
Аэродром
Класс аэродрома: 
Принадлежность: 
ГА
Статус: 
Недействующий
Сайт: 
E-mail аэродрома: 
Страна: 
Россия
Регион: 
Воронежская область
Город: 
Дополнительная информация: 
Площадка АХР. Находится в собственности ООО МТС "Агросервис". Планируется к использованию в качестве РД или подъездной автодороги в системе инфраструктуры вновь образованной ПП "Хава".

Найти трансфер

С помощью этой формы Вы можете найти трансфер из аэропорта Верхняя Хава в город, аэропорт или вокзал:

Карта места

Javascript is required to view this map.

Погода в аэропортах:

Авиационная погода в Кневичи

Регион: 
Погода METAR: 
UHWW 171830Z 00000MPS 2100 0700E R25L/1600D PRFG OVC002 07/07 Q1014 R25L/0///70 NOSIG RMK QBB070 MT OBSC QFE759
Время наблюдения
2021-09-17T18:30:00Z
Температура C
7.0
Точка росы
7.0
Направление ветра
0
Скорость ветра (узлы)
0
Метео видимость
1.3
Явления погоды
PRFG
Условия полета
LIFR
Аэропорт подробнее: 

Авиационная погода в Курске

Погода METAR: 
UUOK 171830Z 10007MPS 9999 -RA NSC 09/07 Q1015 R12/290050 NOSIG RMK QFE743/0991
Время наблюдения
2021-09-17T18:30:00Z
Температура C
9.0
Точка росы
7.0
Направление ветра
100
Скорость ветра (узлы)
14
Метео видимость
6.21
Явления погоды
-RA
Условия полета
VFR
Аэропорт подробнее: 

Авиационная погода в Емельяново

Регион: 
Погода METAR: 
UNKL 171830Z 10002MPS 0150 0100S R29/0550U FG SCT001 08/08 Q1005 R29/CLRD65 NOSIG RMK QBB050 QFE729
Время наблюдения
2021-09-17T18:30:00Z
Температура C
8.0
Точка росы
8.0
Направление ветра
100
Скорость ветра (узлы)
4
Метео видимость
0.09
Явления погоды
FG
Условия полета
LIFR
Аэропорт подробнее: 

Авиационная погода в Челябинске

Регион: 
Погода METAR: 
USCC 171830Z 28003MPS 9999 -SHRA BKN026CB 07/07 Q1007 R27/290050 TEMPO 2000 SHRA RMK QFE735
Время наблюдения
2021-09-17T18:30:00Z
Температура C
7.0
Точка росы
7.0
Направление ветра
280
Скорость ветра (узлы)
6
Метео видимость
6.21
Явления погоды
-SHRA
Условия полета
MVFR
Аэропорт подробнее: